Terminal Aerodrome Forecast
Issued by NWS

Home | Current Version | Previous Version | Text Only | Print | Product List | Glossary On
Versions: 1 2 3 4 5 6 7 8 9 10 11 12 13 14 15 16 17 18 19 20 21 22 23
113
FTUS46 KSEW 221400 AAA
TAFHQM
TAF AMD
KHQM 221431Z 2215/2312 27008KT 4SM BR OVC012
     FM221800 25013KT P6SM OVC018
     FM222200 25013KT P6SM OVC022
     FM230200 25012KT P6SM OVC012
     FM230600 25008KT P6SM OVC008=

USA.gov is the U.S. government's official web portal to all federal, state and local government web resources and services.